Time;durP1;ratioP1;P1;durP2;ratioP2;P2;SDS_P1;SDS_P2;PMS_P1;PMS_P2;Temp;Humidity;BMP_temperature;BMP_pressure;BME280_temperature;BME280_humidity;BME280_pressure;Samples;Min_cycle;Max_cycle;Signal;HPM_P1;HPM_P2
2024/04/12 00:01:42;;;;;;;18.27;12.32;;;13.50;99.90;;;18.26;88.50;102362.84;5380085;26;20011;-81
2024/04/12 00:04:09;;;;;;;18.95;11.88;;;13.50;99.90;;;18.12;89.41;102353.84;5380995;26;20384;-81
2024/04/12 00:06:37;;;;;;;15.45;11.23;;;13.50;99.90;;;17.90;91.25;102348.69;5381186;26;20015;-81
2024/04/12 00:09:09;;;;;;;15.02;10.82;;;13.50;99.90;;;18.11;91.58;102350.22;5382165;26;20331;-81
2024/04/12 00:11:39;;;;;;;16.88;10.48;;;13.50;99.90;;;18.07;88.70;102318.59;5380221;26;19996;-81
2024/04/12 00:14:05;;;;;;;16.45;10.88;;;13.50;99.90;;;18.14;89.25;102329.59;5389224;26;20462;-80
2024/04/12 00:16:31;;;;;;;15.02;10.82;;;13.40;99.90;;;18.24;87.96;102331.84;5379871;26;20443;-80
2024/04/12 00:19:12;;;;;;;16.73;11.43;;;13.40;99.90;;;18.36;87.21;102340.22;5379352;26;19996;-81
2024/04/12 00:21:41;;;;;;;17.42;11.55;;;13.40;99.90;;;18.12;89.83;102334.50;5380354;26;20015;-82
2024/04/12 00:24:11;;;;;;;18.33;11.98;;;13.40;99.90;;;18.30;87.67;102325.41;5360569;26;20019;-81
2024/04/12 00:26:43;;;;;;;17.77;11.25;;;13.30;99.90;;;18.45;87.63;102332.50;5379091;26;19996;-81
2024/04/12 00:29:36;;;;;;;17.50;11.90;;;13.40;99.90;;;18.48;86.32;102338.38;5383292;26;19995;-81
2024/04/12 00:32:13;;;;;;;17.90;11.80;;;13.30;99.90;;;18.45;86.28;102333.31;5377981;26;19996;-82
2024/04/12 00:34:47;;;;;;;18.33;12.32;;;13.40;99.90;;;18.32;87.52;102331.53;5395273;26;20308;-82
2024/04/12 00:37:17;;;;;;;18.02;11.35;;;13.40;99.90;;;18.35;87.21;102331.06;5380135;26;20004;-81
2024/04/12 00:39:53;;;;;;;16.85;11.60;;;13.30;99.90;;;18.43;87.95;102326.31;5379709;26;20028;-81
2024/04/12 00:42:26;;;;;;;16.15;11.25;;;13.40;99.90;;;18.38;87.04;102330.63;5380516;26;19996;-81
2024/04/12 00:44:58;;;;;;;17.95;11.73;;;13.40;99.90;;;18.39;87.44;102331.47;5380638;26;20054;-81
2024/04/12 00:47:27;;;;;;;16.80;11.30;;;13.40;99.90;;;18.25;88.05;102328.84;5380222;26;19997;-81
2024/04/12 00:49:55;;;;;;;18.05;11.75;;;13.40;99.90;;;18.29;87.62;102322.84;5337879;26;20013;-82
2024/04/12 00:52:27;;;;;;;20.20;11.95;;;13.40;99.90;;;18.30;87.41;102322.63;5375947;26;20004;-79
2024/04/12 00:55:08;;;;;;;16.45;11.50;;;13.40;99.90;;;18.33;87.44;102326.88;5383545;26;20004;-77
2024/04/12 00:57:37;;;;;;;19.13;11.88;;;13.40;99.90;;;18.33;87.60;102335.16;5373104;26;20358;-76
2024/04/12 01:00:19;;;;;;;17.65;11.70;;;13.50;99.90;;;18.30;88.10;102327.31;5377212;26;19995;-77
2024/04/12 01:02:48;;;;;;;19.15;12.07;;;13.50;99.90;;;18.56;85.97;102328.94;5381479;26;20078;-77
2024/04/12 01:05:19;;;;;;;17.10;11.25;;;13.50;99.90;;;18.59;85.68;102327.66;5391490;26;19996;-77
2024/04/12 01:07:49;;;;;;;16.10;10.88;;;13.50;99.90;;;18.38;87.23;102321.50;5366294;26;19995;-77
2024/04/12 01:10:21;;;;;;;18.58;12.30;;;13.50;99.90;;;18.31;87.58;102326.25;5393949;26;19992;-77
2024/04/12 01:12:47;;;;;;;18.83;11.55;;;13.50;99.90;;;18.33;86.78;102319.41;5387583;26;20334;-78
2024/04/12 01:15:19;;;;;;;19.48;12.63;;;13.50;99.90;;;18.35;87.62;102321.97;5390464;26;20071;-78
2024/04/12 01:17:44;;;;;;;17.88;12.60;;;13.50;99.90;;;18.34;88.47;102310.06;5379232;26;20051;-78
2024/04/12 01:20:11;;;;;;;18.95;12.75;;;13.50;99.90;;;18.44;86.86;102311.47;5379445;26;19997;-77
2024/04/12 01:22:38;;;;;;;19.42;13.35;;;13.50;99.90;;;18.01;88.30;102297.44;5379728;26;20000;-78
2024/04/12 01:25:05;;;;;;;22.05;13.45;;;13.50;99.90;;;18.36;88.69;102309.84;5380972;26;20323;-78
2024/04/12 01:27:31;;;;;;;24.30;13.77;;;13.50;99.90;;;18.30;87.49;102286.72;5379761;26;20008;-78
2024/04/12 01:29:56;;;;;;;25.83;14.65;;;13.50;99.90;;;18.35;87.32;102299.88;5379852;26;20000;-77
2024/04/12 01:32:24;;;;;;;21.45;13.75;;;13.50;99.90;;;18.22;88.82;102301.69;5378971;26;20334;-77
2024/04/12 01:34:50;;;;;;;23.75;14.48;;;13.60;99.90;;;18.34;88.36;102303.69;5361495;26;20006;-77
2024/04/12 01:37:20;;;;;;;23.63;14.77;;;13.60;99.90;;;18.19;88.10;102291.09;5356273;26;20011;-78
2024/04/12 01:39:50;;;;;;;24.30;14.30;;;13.70;99.90;;;18.25;88.13;102284.66;5407578;26;20015;-78
2024/04/12 01:42:18;;;;;;;23.90;15.02;;;13.60;99.90;;;18.32;88.47;102301.16;5380236;26;20008;-78
2024/04/12 01:45:13;;;;;;;23.70;15.07;;;13.60;99.90;;;18.35;88.58;102291.56;5380444;26;19992;-77
2024/04/12 01:47:41;;;;;;;24.02;14.32;;;13.60;99.90;;;18.48;86.89;102288.66;5356683;26;19997;-78
2024/04/12 01:50:07;;;;;;;23.65;14.73;;;13.60;99.90;;;18.57;86.70;102293.88;5377892;26;20489;-78
2024/04/12 01:52:49;;;;;;;26.30;16.42;;;13.60;99.90;;;18.61;85.63;102303.41;5373171;26;20004;-78
2024/04/12 01:55:18;;;;;;;24.48;15.27;;;13.60;99.90;;;18.28;85.95;102257.63;5373790;26;20007;-78
2024/04/12 01:57:51;;;;;;;25.80;15.70;;;13.60;99.90;;;18.43;86.65;102295.94;5378787;26;20015;-78
2024/04/12 02:00:20;;;;;;;23.40;15.55;;;13.60;99.90;;;18.33;87.19;102294.56;5375014;26;20000;-78
2024/04/12 02:02:51;;;;;;;23.52;14.88;;;13.60;99.90;;;18.08;90.50;102300.13;5364873;26;20012;-78
2024/04/12 02:05:29;;;;;;;24.15;15.82;;;13.60;99.90;;;17.96;91.54;102280.69;5378694;26;19992;-78
2024/04/12 02:07:59;;;;;;;27.92;15.98;;;13.60;99.90;;;18.20;90.46;102314.03;5373513;26;20003;-78
2024/04/12 02:10:26;;;;;;;24.48;15.90;;;13.60;99.90;;;18.33;88.87;102296.50;5379373;26;19996;-78
2024/04/12 02:12:55;;;;;;;28.30;16.90;;;13.60;99.90;;;18.25;88.58;102294.88;5382000;26;20476;-78
2024/04/12 02:15:25;;;;;;;22.73;15.48;;;13.60;99.90;;;18.25;88.23;102287.41;5381119;26;20059;-78
2024/04/12 02:17:58;;;;;;;24.55;15.85;;;13.60;99.90;;;18.33;87.62;102299.25;5382517;26;20015;-78
2024/04/12 02:20:33;;;;;;;26.08;15.40;;;13.60;99.90;;;18.02;89.81;102299.13;5380616;26;20022;-78
2024/04/12 02:23:09;;;;;;;22.95;15.80;;;13.70;99.90;;;18.33;87.63;102279.91;5382913;26;20008;-78
2024/04/12 02:25:39;;;;;;;23.40;15.70;;;13.60;99.90;;;18.38;88.15;102300.22;5377809;26;20024;-78
2024/04/12 02:28:08;;;;;;;24.42;15.75;;;13.60;99.90;;;18.03;90.69;102298.03;5383077;26;20000;-78
2024/04/12 02:30:41;;;;;;;24.63;15.80;;;13.60;99.90;;;18.03;90.34;102299.94;5390791;26;20008;-78
2024/04/12 02:33:14;;;;;;;24.27;15.88;;;13.60;99.90;;;17.82;91.23;102296.50;5381120;26;20001;-78
2024/04/12 02:35:43;;;;;;;23.13;16.40;;;13.60;99.90;;;18.08;92.20;102294.63;5381892;26;20004;-78
2024/04/12 02:38:20;;;;;;;24.05;16.10;;;13.60;99.90;;;18.03;90.41;102288.91;5383180;26;20028;-79
2024/04/12 02:40:50;;;;;;;22.83;15.80;;;13.60;99.90;;;18.08;91.70;102298.22;5370341;26;19992;-79
2024/04/12 02:43:17;;;;;;;24.38;15.68;;;13.60;99.90;;;18.16;90.68;102291.56;5382483;26;20011;-77
2024/04/12 02:45:57;;;;;;;24.17;15.48;;;13.60;99.90;;;18.13;91.03;102275.44;5383021;26;20067;-77
2024/04/12 02:48:23;;;;;;;29.83;16.35;;;13.60;99.90;;;18.27;89.52;102262.31;5382762;26;20007;-77
2024/04/12 02:50:54;;;;;;;25.42;15.82;;;13.60;99.90;;;18.38;88.36;102278.13;5382303;26;20018;-77
2024/04/12 02:53:26;;;;;;;22.42;14.95;;;13.60;99.90;;;18.37;88.76;102273.69;5382885;26;19995;-77
2024/04/12 02:56:11;;;;;;;22.10;14.18;;;13.60;99.90;;;18.27;90.06;102270.63;5381984;26;20024;-77
2024/04/12 02:58:44;;;;;;;23.40;14.95;;;13.60;99.90;;;18.34;88.87;102267.78;5369639;26;20459;-77
2024/04/12 03:01:16;;;;;;;24.23;14.95;;;13.50;99.90;;;18.40;86.91;102242.81;5368801;26;20029;-77
2024/04/12 03:03:58;;;;;;;21.15;14.70;;;13.60;99.90;;;18.35;87.46;102273.06;5381795;26;20004;-78
2024/04/12 03:06:32;;;;;;;23.70;15.45;;;13.50;99.90;;;17.89;89.42;102253.13;5391948;26;20004;-77
2024/04/12 03:09:00;;;;;;;21.83;14.73;;;13.50;99.90;;;18.20;88.31;102267.91;5351536;26;20015;-77
2024/04/12 03:11:34;;;;;;;20.90;15.40;;;13.50;99.90;;;18.34;89.36;102267.78;5381493;26;20000;-77
2024/04/12 03:14:12;;;;;;;23.20;14.75;;;13.50;99.90;;;18.05;90.16;102250.88;5358657;26;20012;-77
2024/04/12 03:16:42;;;;;;;22.85;14.48;;;13.60;99.90;;;18.05;91.59;102256.41;5382447;26;19996;-78
2024/04/12 03:19:10;;;;;;;22.52;14.32;;;13.50;99.90;;;18.04;91.35;102263.84;5383849;26;20358;-77
2024/04/12 03:21:37;;;;;;;;;;;13.50;99.90;;;18.24;90.82;102266.38;5382493;26;20320;-77
2024/04/12 03:24:08;;;;;;;21.58;14.48;;;13.50;99.90;;;18.29;88.93;102257.41;5381909;26;19932;-77
2024/04/12 03:26:35;;;;;;;22.75;14.65;;;13.50;99.90;;;18.06;89.32;102225.78;5381770;26;19996;-77
2024/04/12 03:29:05;;;;;;;23.40;14.23;;;13.50;99.90;;;17.48;92.93;102227.81;5382230;26;20445;-78
2024/04/12 03:31:38;;;;;;;23.60;14.75;;;13.50;99.90;;;17.47;95.72;102239.06;5383252;26;20000;-77
2024/04/12 03:34:13;;;;;;;24.77;16.02;;;13.50;99.90;;;17.90;93.67;102249.28;5382482;26;20250;-77
2024/04/12 03:42:08;;;;;;;22.55;14.10;;;13.50;99.90;;;17.66;97.57;102238.03;5380469;26;20068;-77
2024/04/12 03:44:36;;;;;;;24.33;14.93;;;13.40;99.90;;;17.62;96.77;102233.19;5374788;26;20009;-77
2024/04/12 03:47:10;;;;;;;23.38;15.25;;;13.50;99.90;;;17.81;94.86;102225.81;5382069;26;20000;-77
2024/04/12 03:49:39;;;;;;;22.63;15.27;;;13.40;99.90;;;17.90;95.53;102232.72;5380966;26;20016;-77
2024/04/12 03:52:11;;;;;;;22.17;15.15;;;13.40;99.90;;;17.97;94.37;102227.16;5380874;26;20007;-77
2024/04/12 03:54:37;;;;;;;23.92;14.88;;;13.40;99.90;;;18.17;93.16;102239.91;5380977;26;19992;-77
2024/04/12 03:57:06;;;;;;;25.00;15.77;;;13.40;99.90;;;18.13;91.76;102236.78;5381485;26;20476;-77
2024/04/12 03:59:34;;;;;;;23.83;15.27;;;13.40;99.90;;;18.06;92.78;102231.31;5381886;26;20006;-77
2024/04/12 04:02:06;;;;;;;25.20;16.02;;;13.40;99.90;;;18.05;93.62;102231.56;5362122;26;20324;-78
2024/04/12 04:04:44;;;;;;;23.70;15.73;;;13.30;99.90;;;17.94;92.26;102228.44;5368333;26;20000;-77
2024/04/12 04:07:14;;;;;;;23.10;15.13;;;13.30;99.90;;;17.62;93.98;102214.75;5380807;26;20073;-77
2024/04/12 04:09:42;;;;;;;24.88;15.30;;;13.40;99.90;;;17.81;94.54;102228.59;5380515;26;20355;-77
2024/04/12 04:12:17;;;;;;;22.92;15.13;;;13.40;99.90;;;18.02;93.14;102226.47;5380769;26;20087;-77
2024/04/12 04:14:49;;;;;;;24.00;15.23;;;13.40;99.90;;;17.92;93.97;102230.59;5381422;26;20000;-77
2024/04/12 04:17:18;;;;;;;23.35;16.35;;;13.40;99.90;;;18.01;92.71;102210.94;5381634;26;19996;-77
2024/04/12 04:19:45;;;;;;;26.10;14.73;;;13.30;99.90;;;18.01;92.29;102216.47;5408540;26;19996;-79
2024/04/12 04:24:56;;;;;;;23.85;14.93;;;13.40;99.90;;;18.12;91.35;102224.03;5380599;26;20328;-78
2024/04/12 04:27:23;;;;;;;25.85;14.85;;;13.40;99.90;;;18.06;91.49;102220.28;5378654;26;20032;-79
2024/04/12 04:29:52;;;;;;;24.48;15.05;;;13.40;99.90;;;18.08;89.87;102231.09;5381484;26;19992;-78
2024/04/12 04:32:22;;;;;;;27.83;15.07;;;13.40;99.90;;;18.31;88.90;102224.06;5381728;26;19993;-78
2024/04/12 04:34:55;;;;;;;22.98;14.68;;;13.40;99.90;;;18.37;87.60;102215.66;5380692;26;20125;-79
2024/04/12 04:37:21;;;;;;;23.40;14.23;;;13.50;99.90;;;18.46;86.29;102218.97;5404044;26;20042;-79
2024/04/12 04:39:47;;;;;;;20.00;12.82;;;13.50;99.90;;;18.16;87.62;102228.03;5379271;26;20109;-78
2024/04/12 04:42:16;;;;;;;23.80;14.13;;;13.50;99.90;;;18.30;87.90;102223.19;5381110;26;20004;-79
2024/04/12 04:44:42;;;;;;;24.50;13.15;;;13.50;99.90;;;18.34;87.18;102227.19;5380544;26;19996;-78
2024/04/12 04:47:09;;;;;;;21.70;13.52;;;13.60;99.90;;;18.03;88.89;102228.16;5381185;26;20031;-79
2024/04/12 04:49:36;;;;;;;20.33;12.77;;;13.60;99.90;;;18.28;87.79;102232.78;5380301;26;19999;-79
2024/04/12 04:52:02;;;;;;;21.63;13.80;;;13.60;99.90;;;18.19;86.89;102230.31;5380741;26;20007;-80
2024/04/12 04:54:28;;;;;;;20.63;13.95;;;13.60;99.90;;;18.33;86.63;102242.06;5373847;26;20424;-80
2024/04/12 04:56:54;;;;;;;20.98;12.88;;;13.60;99.90;;;18.31;86.80;102243.38;5380517;26;20000;-80
2024/04/12 04:59:28;;;;;;;25.27;14.20;;;13.70;99.90;;;18.59;85.40;102242.00;5377024;26;20004;-80
2024/04/12 05:01:56;;;;;;;23.20;13.75;;;13.70;99.90;;;18.60;84.98;102235.38;5372972;26;20356;-83
2024/04/12 05:04:25;;;;;;;22.27;13.52;;;13.70;99.90;;;18.66;84.50;102242.75;5381254;26;20463;-80
2024/04/12 05:06:55;;;;;;;24.40;14.18;;;13.70;99.90;;;18.77;83.92;102241.94;5351230;26;20008;-80
2024/04/12 05:09:27;;;;;;;22.13;14.27;;;13.70;99.90;;;18.73;83.31;102248.19;5408219;26;19992;-80
2024/04/12 05:11:54;;;;;;;20.63;13.38;;;13.70;99.90;;;18.70;84.67;102252.25;5380611;26;20019;-81
2024/04/12 05:14:46;;;;;;;24.58;14.20;;;13.70;99.90;;;18.73;84.25;102257.31;5381992;26;19991;-79
2024/04/12 05:17:09;;;;;;;20.95;12.77;;;13.70;99.90;;;18.78;84.35;102253.84;5380126;26;20028;-81
2024/04/12 05:19:40;;;;;;;22.50;13.45;;;13.80;99.90;;;18.90;83.31;102246.44;5381087;26;20003;-79
2024/04/12 05:22:19;;;;;;;22.83;13.70;;;13.80;99.90;;;18.81;84.53;102245.91;5356867;26;20083;-79
2024/04/12 05:24:46;;;;;;;24.85;13.85;;;13.90;99.90;;;18.86;83.41;102247.16;5334499;26;19996;-77
2024/04/12 05:27:12;;;;;;;20.90;14.07;;;13.90;99.90;;;18.84;83.38;102241.84;5377104;26;20008;-77
2024/04/12 05:29:41;;;;;;;24.27;14.30;;;13.90;99.90;;;19.03;82.40;102250.97;5377308;26;20000;-78
2024/04/12 05:32:09;;;;;;;29.52;14.40;;;13.90;99.90;;;18.66;83.44;102245.50;5377694;26;20276;-81
2024/04/12 05:34:35;;;;;;;25.27;15.63;;;13.90;99.90;;;18.93;82.54;102250.66;5377110;26;20001;-81
2024/04/12 05:37:04;;;;;;;22.48;13.40;;;14.00;99.90;;;18.73;83.55;102253.72;5381256;26;20392;-78
2024/04/12 05:39:35;;;;;;;24.08;13.70;;;13.90;99.90;;;18.58;85.57;102254.94;5387886;26;19992;-79
2024/04/12 05:42:05;;;;;;;25.20;13.98;;;13.90;99.90;;;18.47;85.47;102248.28;5372255;26;19996;-78
2024/04/12 05:44:34;;;;;;;23.88;13.60;;;13.90;99.90;;;18.77;84.64;102247.47;5377687;26;19996;-81
2024/04/12 05:47:01;;;;;;;26.50;13.77;;;14.00;99.90;;;18.77;84.49;102241.09;5381024;26;20008;-81
2024/04/12 05:49:30;;;;;;;27.20;14.18;;;14.10;99.90;;;18.38;86.53;102244.16;5391325;26;20323;-82
2024/04/12 05:52:01;;;;;;;26.30;13.40;;;14.10;99.90;;;18.87;83.55;102230.31;5385648;26;20000;-79
2024/04/12 05:54:47;;;;;;;20.63;13.05;;;14.10;99.90;;;18.58;82.61;102232.00;5382205;26;20436;-79
2024/04/12 05:57:16;;;;;;;23.40;13.32;;;14.30;99.90;;;18.94;82.26;102228.28;5370031;26;20000;-79
2024/04/12 05:59:44;;;;;;;25.33;15.07;;;14.10;99.90;;;19.13;81.54;102238.50;5395476;26;20328;-79
2024/04/12 06:02:14;;;;;;;24.55;13.10;;;14.20;99.90;;;19.16;80.28;102226.97;5394180;26;20110;-81
2024/04/12 06:04:47;;;;;;;21.88;13.38;;;14.30;99.90;;;18.86;81.46;102203.75;5404529;26;20002;-81
2024/04/12 06:07:13;;;;;;;25.10;13.25;;;14.30;99.90;;;18.46;83.20;102154.59;5382607;26;20032;-79
2024/04/12 06:09:40;;;;;;;19.70;12.80;;;14.30;99.90;;;18.77;80.68;102167.31;5367396;26;20000;-80
2024/04/12 06:12:07;;;;;;;23.93;12.77;;;14.40;99.90;;;18.81;80.28;102160.22;5410900;26;19997;-82
2024/04/12 06:14:42;;;;;;;20.90;12.02;;;14.50;99.90;;;18.90;80.94;102159.91;5371005;26;20455;-84
2024/04/12 06:17:08;;;;;;;18.30;11.32;;;14.60;99.90;;;18.90;79.19;102138.59;5385373;26;20007;-84
2024/04/12 06:19:39;;;;;;;22.45;11.88;;;14.70;99.90;;;18.67;79.21;102150.44;5341590;26;19997;-85
2024/04/12 06:22:13;;;;;;;17.55;10.80;;;14.70;99.90;;;19.13;79.58;102172.13;5386976;26;20415;-80
2024/04/12 06:24:48;;;;;;;19.80;10.80;;;14.80;99.90;;;18.96;79.50;102139.59;5378094;26;20004;-82
2024/04/12 06:27:33;;;;;;;16.63;9.60;;;15.00;99.90;;;18.89;78.76;102128.63;5385147;26;20008;-83
2024/04/12 06:29:59;;;;;;;15.75;8.90;;;15.10;99.90;;;19.43;77.87;102162.91;5374868;26;20385;-83
2024/04/12 06:32:28;;;;;;;17.52;10.10;;;15.10;99.90;;;19.10;78.28;102127.28;5351898;26;20039;-82
2024/04/12 06:34:54;;;;;;;18.85;9.90;;;15.30;99.90;;;19.20;76.63;102153.50;5382770;26;20032;-82
2024/04/12 06:37:27;;;;;;;24.48;11.23;;;15.30;99.90;;;19.81;77.33;102186.47;5369072;26;20001;-81
2024/04/12 06:39:55;;;;;;;16.92;9.80;;;15.30;99.90;;;20.11;73.50;102185.50;5401971;26;19999;-81
2024/04/12 06:42:21;;;;;;;19.08;9.05;;;15.40;99.90;;;19.76;75.18;102170.59;5389886;26;20419;-79
2024/04/12 06:44:52;;;;;;;17.67;9.53;;;15.50;99.90;;;19.82;75.50;102182.59;5371209;26;20003;-78
2024/04/12 06:47:19;;;;;;;16.55;9.25;;;15.60;99.90;;;19.78;75.06;102173.97;5379806;26;20230;-79
2024/04/12 06:49:45;;;;;;;16.70;9.13;;;15.80;99.90;;;19.96;74.11;102186.00;5381769;26;20367;-79
2024/04/12 06:52:14;;;;;;;15.07;8.68;;;15.80;99.90;;;20.46;71.67;102181.78;5381051;26;20004;-80
2024/04/12 06:54:42;;;;;;;15.23;8.63;;;15.90;99.90;;;19.74;71.59;102177.44;5382296;26;20011;-80
2024/04/12 06:57:17;;;;;;;14.43;8.40;;;16.00;99.90;;;20.55;71.01;102185.84;5366911;26;20000;-79
2024/04/12 06:59:47;;;;;;;13.75;8.25;;;16.00;99.90;;;20.07;70.12;102182.38;5393629;26;20003;-80
2024/04/12 07:02:14;;;;;;;16.35;8.65;;;16.10;99.90;;;20.04;73.25;102199.50;5368157;26;20001;-78
2024/04/12 07:04:40;;;;;;;15.32;8.48;;;16.10;99.90;;;20.09;72.35;102171.91;5381939;26;19992;-81
2024/04/12 07:07:06;;;;;;;14.93;8.15;;;16.10;99.90;;;20.63;70.07;102186.53;5383686;26;20309;-79
2024/04/12 07:09:33;;;;;;;15.20;8.38;;;16.20;99.90;;;19.92;71.76;102163.50;5391891;26;20000;-78
2024/04/12 07:12:05;;;;;;;12.53;7.53;;;16.10;99.90;;;20.80;69.37;102193.00;5365344;26;20005;-79
2024/04/12 07:14:41;;;;;;;12.18;7.13;;;16.30;99.90;;;20.69;67.62;102163.38;5384155;26;20091;-78
2024/04/12 07:17:20;;;;;;;11.75;6.63;;;16.50;99.90;;;20.65;67.10;102187.97;5383789;26;20069;-83
2024/04/12 07:19:50;;;;;;;11.20;7.13;;;16.50;99.90;;;20.86;66.22;102171.75;5384213;26;20014;-79
2024/04/12 07:22:21;;;;;;;11.88;6.97;;;16.60;99.90;;;20.44;65.72;102181.19;5383845;26;20007;-81
2024/04/12 07:24:51;;;;;;;12.63;7.32;;;16.80;99.90;;;20.58;68.08;102205.84;5384740;26;20509;-84
2024/04/12 07:27:32;;;;;;;12.02;6.90;;;16.70;99.90;;;20.45;68.24;102184.81;5368641;26;19993;-82
2024/04/12 07:29:58;;;;;;;15.07;7.40;;;16.70;99.90;;;20.58;67.00;102191.97;5395626;26;19996;-78
2024/04/12 07:32:25;;;;;;;17.20;7.72;;;16.80;99.90;;;20.54;66.49;102170.31;5405412;26;20004;-80
2024/04/12 07:34:51;;;;;;;14.77;6.88;;;16.70;99.90;;;20.38;66.55;102160.84;5405977;26;20051;-80
2024/04/12 07:37:27;;;;;;;9.20;5.30;;;16.70;99.90;;;20.12;66.34;102185.25;5416673;26;20411;-79
2024/04/12 07:40:19;;;;;;;10.07;4.80;;;16.60;99.90;;;20.35;67.00;102188.19;5381539;26;20008;-78
2024/04/12 07:42:50;;;;;;;10.10;5.15;;;16.60;99.90;;;20.65;64.80;102181.56;5397273;26;20011;-81
2024/04/12 07:45:17;;;;;;;8.45;5.03;;;16.80;99.90;;;20.15;66.58;102188.63;5388373;26;20332;-81
2024/04/12 07:47:52;;;;;;;8.73;4.85;;;16.60;99.90;;;20.33;66.48;102163.53;5381690;26;20000;-80
2024/04/12 07:50:29;;;;;;;10.43;5.00;;;16.50;99.90;;;19.92;66.12;102195.88;5381859;26;20452;-80
2024/04/12 07:55:58;;;;;;;8.00;4.78;;;16.60;99.90;;;20.19;65.79;102167.66;5371711;26;20008;-79
2024/04/12 07:58:26;;;;;;;8.68;4.40;;;16.50;99.90;;;20.63;64.66;102169.91;5383774;26;20019;-79
2024/04/12 08:04:05;;;;;;;8.25;4.70;;;16.60;99.90;;;20.90;63.25;102188.72;5380121;26;20428;-80
2024/04/12 08:06:55;;;;;;;8.45;4.85;;;16.70;99.90;;;20.62;63.76;102157.13;5381063;26;20028;-81
2024/04/12 08:09:34;;;;;;;8.48;4.90;;;16.70;99.90;;;20.56;63.67;102156.22;5383815;26;20024;-77
2024/04/12 08:12:23;;;;;;;11.18;4.82;;;16.80;99.90;;;20.72;65.22;102173.13;5395505;26;20011;-78
2024/04/12 08:14:53;;;;;;;7.05;4.32;;;16.90;99.90;;;21.09;61.79;102165.22;5380662;26;20073;-78
2024/04/12 08:17:28;;;;;;;12.30;5.07;;;16.90;99.90;;;20.91;63.68;102168.22;5372571;26;19992;-76
2024/04/12 08:20:00;;;;;;;8.65;4.88;;;16.90;99.90;;;20.83;63.38;102189.72;5379284;26;19991;-79
2024/04/12 08:22:27;;;;;;;9.00;5.00;;;16.90;99.90;;;20.86;63.89;102195.88;5390157;26;20081;-79
2024/04/12 08:24:57;;;;;;;6.70;4.45;;;16.90;99.90;;;20.87;63.68;102181.75;5381263;26;20451;-78
2024/04/12 08:27:24;;;;;;;9.93;4.88;;;16.90;99.90;;;21.45;61.97;102194.63;5380184;26;19992;-77
2024/04/12 08:29:55;;;;;;;7.60;4.68;;;17.20;99.90;;;21.95;60.83;102198.50;5379662;26;20016;-77
2024/04/12 08:32:27;;;;;;;7.60;4.60;;;17.40;99.90;;;21.67;58.99;102162.25;5380468;26;19992;-78
2024/04/12 08:34:58;;;;;;;8.20;4.53;;;17.50;99.90;;;21.51;60.51;102154.78;5376624;26;20346;-79
2024/04/12 08:37:32;;;;;;;8.82;5.13;;;17.40;99.90;;;21.55;59.93;102181.75;5382862;26;20512;-80
2024/04/12 08:40:08;;;;;;;8.73;5.38;;;17.40;99.90;;;21.47;61.08;102175.78;5376192;26;19997;-79
2024/04/12 08:42:37;;;;;;;7.80;5.10;;;17.30;99.90;;;21.77;59.99;102171.84;5379420;26;20004;-78
2024/04/12 08:45:13;;;;;;;9.77;5.53;;;17.40;99.90;;;21.47;60.35;102193.31;5381194;26;19996;-79
2024/04/12 08:48:02;;;;;;;9.48;5.88;;;17.40;99.90;;;21.33;60.93;102187.25;5381344;26;19992;-79
2024/04/12 08:50:31;;;;;;;8.45;5.75;;;17.30;99.90;;;21.01;61.72;102186.97;5378245;26;20007;-79
2024/04/12 08:53:04;;;;;;;9.80;6.10;;;17.40;99.90;;;21.55;60.99;102180.94;5366212;26;20010;-80
2024/04/12 08:55:30;;;;;;;9.77;6.10;;;17.50;99.90;;;21.29;60.30;102183.31;5378933;26;20000;-78
2024/04/12 08:58:00;;;;;;;9.35;5.97;;;17.50;99.90;;;21.49;59.86;102180.00;5377112;26;20011;-80
2024/04/12 09:00:32;;;;;;;10.65;6.20;;;17.60;99.90;;;21.58;60.46;102194.31;5378173;26;20015;-78
2024/04/12 09:03:24;;;;;;;7.88;5.28;;;17.50;99.90;;;21.62;61.18;102197.44;5378943;26;20011;-79
2024/04/12 09:05:52;;;;;;;10.05;5.32;;;17.60;99.90;;;21.83;60.20;102185.53;5359249;26;20638;-77
2024/04/12 09:08:22;;;;;;;9.13;5.50;;;17.70;99.90;;;22.37;57.63;102177.63;5377735;26;20010;-78
2024/04/12 09:10:52;;;;;;;8.95;5.63;;;18.10;99.90;;;22.89;56.52;102189.31;5379847;26;20004;-79
2024/04/12 09:13:19;;;;;;;8.98;6.00;;;18.50;99.90;;;22.96;56.42;102184.38;5380184;26;20000;-79
2024/04/12 09:15:45;;;;;;;8.82;6.00;;;18.70;99.90;;;21.68;57.83;102177.81;5380106;26;19996;-78
2024/04/12 09:18:17;;;;;;;9.75;5.57;;;18.60;99.90;;;21.40;59.93;102187.91;5379463;26;20004;-78
2024/04/12 09:20:45;;;;;;;8.93;5.93;;;18.30;99.90;;;22.21;58.43;102173.81;5378332;26;20028;-79
2024/04/12 09:23:15;;;;;;;9.40;5.90;;;18.10;99.90;;;22.96;57.26;102162.97;5379122;26;20011;-79
2024/04/12 09:25:55;;;;;;;9.93;6.20;;;18.30;99.90;;;22.49;56.72;102158.03;5380080;26;20000;-80
2024/04/12 09:28:30;;;;;;;8.30;5.50;;;18.40;99.90;;;21.78;58.71;102141.03;5380489;26;20007;-79
2024/04/12 09:33:51;;;;;;;8.40;4.28;;;18.80;99.90;;;23.38;55.39;102141.91;5405202;26;20020;-82
2024/04/12 09:36:38;;;;;;;8.23;4.40;;;19.10;99.90;;;23.08;55.29;102153.59;5377834;26;20062;-79
2024/04/12 09:39:16;;;;;;;7.80;4.25;;;19.10;99.90;;;23.36;54.18;102149.69;5372206;26;20011;-80
2024/04/12 09:41:53;;;;;;;6.90;4.78;;;19.10;99.90;;;23.20;54.40;102151.47;5353097;26;20004;-80
2024/04/12 09:44:27;;;;;;;7.10;4.40;;;19.20;99.90;;;23.48;53.26;102151.41;5382577;26;19996;-78
2024/04/12 10:37:48;;;;;;;4.88;3.30;;;;;;;25.42;49.61;102140.22;5383267;26;20454;-76
2024/04/12 10:40:16;;;;;;;5.50;3.55;;;21.30;99.90;;;23.92;52.70;102137.19;5370015;26;19992;-75
2024/04/12 10:42:45;;;;;;;;;;;20.80;99.90;;;24.60;52.87;102152.22;5390821;26;20012;-74
2024/04/12 10:45:15;;;;;;;4.72;3.45;;;20.70;99.90;;;23.60;54.36;102154.00;5382476;26;19933;-76
2024/04/12 10:47:44;;;;;;;5.53;3.30;;;20.40;99.90;;;23.65;55.34;102167.94;5381831;26;20000;-76
2024/04/12 10:50:13;;;;;;;4.95;3.53;;;;;;;23.60;54.66;102159.56;5382565;26;20428;-76
2024/04/12 10:52:40;;;;;;;5.80;3.72;;;19.80;99.90;;;23.95;53.80;102152.50;5387130;26;19999;-76
2024/04/12 10:55:09;;;;;;;5.32;3.90;;;20.00;99.90;;;23.39;56.84;102170.56;5381770;26;20004;-75
2024/04/12 10:57:48;;;;;;;5.55;3.90;;;19.70;99.90;;;23.02;57.90;102197.22;5372424;26;19996;-75
2024/04/12 11:00:17;;;;;;;5.22;3.85;;;19.30;99.90;;;22.51;58.20;102162.22;5383756;26;20004;-76
2024/04/12 11:02:46;;;;;;;7.40;5.20;;;18.90;99.90;;;22.17;60.70;102172.66;5352214;26;20363;-76
2024/04/12 11:07:54;;;;;;;7.80;4.70;;;18.40;99.90;;;22.35;61.66;102168.69;5375195;26;20032;-75
2024/04/12 11:10:24;;;;;;;8.35;5.15;;;18.30;99.90;;;22.10;61.70;102153.41;5367218;26;19996;-75
2024/04/12 11:12:59;;;;;;;5.20;3.58;;;18.20;99.90;;;22.59;62.61;102154.53;5380592;26;19997;-76
2024/04/12 11:32:15;;;;;;;7.10;4.68;;;18.20;99.90;;;21.88;66.40;102154.22;5382195;26;20000;-77
2024/04/12 11:34:45;;;;;;;8.65;4.40;;;18.30;99.90;;;22.01;64.35;102146.59;5381406;26;20004;-77
2024/04/12 11:37:13;;;;;;;7.82;4.70;;;18.30;99.90;;;22.03;64.28;102145.25;5373106;26;20005;-78
2024/04/12 11:39:41;;;;;;;29.30;9.20;;;18.30;99.90;;;21.81;65.67;102153.56;5383239;26;20077;-77
2024/04/12 11:42:11;;;;;;;;;;;18.40;99.90;;;22.40;64.38;102144.56;5381981;26;20007;-77
2024/04/12 11:44:44;;;;;;;5.70;4.28;;;18.50;99.90;;;23.05;61.26;102127.13;5381232;26;19925;-78
2024/04/12 11:47:11;;;;;;;9.35;4.80;;;;;;;23.19;61.04;102113.59;5382087;26;20011;-77
2024/04/12 11:49:49;;;;;;;8.20;4.53;;;18.70;99.90;;;22.80;61.66;102125.81;5409821;26;19995;-78